createdAt,value
2023-12-31T00:04:54.200Z,26.90
2023-12-31T00:10:03.774Z,71.50
2023-12-31T00:15:11.979Z,26.60
2023-12-31T00:20:19.838Z,28.00
2023-12-31T00:25:32.191Z,21.30
2023-12-31T00:30:40.089Z,26.80
2023-12-31T00:35:49.318Z,33.30
2023-12-31T00:40:57.220Z,30.80
2023-12-31T00:46:05.018Z,26.10
2023-12-31T00:51:12.417Z,30.30
2023-12-31T00:56:19.807Z,26.20
2023-12-31T01:01:27.088Z,36.30
2023-12-31T01:06:34.899Z,28.50
2023-12-31T01:11:42.137Z,26.60
2023-12-31T01:16:50.941Z,27.30
2023-12-31T01:21:59.320Z,27.50
2023-12-31T01:27:07.922Z,30.80
2023-12-31T01:32:15.490Z,30.00
2023-12-31T01:37:23.091Z,25.40
2023-12-31T01:42:30.719Z,29.70
2023-12-31T01:47:39.310Z,27.30
2023-12-31T01:52:48.062Z,37.60
2023-12-31T01:57:55.432Z,27.10
2023-12-31T02:03:04.201Z,28.40
2023-12-31T02:08:11.951Z,28.80
2023-12-31T02:13:22.533Z,30.20
2023-12-31T02:18:32.500Z,29.90
2023-12-31T02:23:40.544Z,34.30
2023-12-31T02:28:47.950Z,29.20
2023-12-31T02:33:55.887Z,26.10
2023-12-31T02:39:03.069Z,30.50
2023-12-31T02:44:10.505Z,33.80
2023-12-31T02:49:18.183Z,31.10
2023-12-31T02:54:25.241Z,28.70
2023-12-31T02:59:32.545Z,34.00
2023-12-31T03:04:43.247Z,31.90
2023-12-31T03:09:50.496Z,32.40
2023-12-31T03:14:58.460Z,30.60
2023-12-31T03:20:06.897Z,27.30
2023-12-31T03:25:14.540Z,28.30
2023-12-31T03:30:22.458Z,28.80
2023-12-31T03:35:30.025Z,30.40
2023-12-31T03:40:37.832Z,30.40
2023-12-31T03:45:45.551Z,32.40
2023-12-31T03:50:52.896Z,34.00
2023-12-31T03:56:00.346Z,29.20
2023-12-31T04:01:08.724Z,28.20
2023-12-31T04:06:16.120Z,37.30
2023-12-31T04:11:23.445Z,31.50
2023-12-31T04:16:31.313Z,26.80
2023-12-31T04:21:38.882Z,35.10
2023-12-31T04:26:47.079Z,30.30
2023-12-31T04:31:55.405Z,33.30
2023-12-31T04:37:03.007Z,30.90
2023-12-31T04:42:10.555Z,38.30
2023-12-31T04:47:17.994Z,41.00
2023-12-31T04:52:25.380Z,36.30
2023-12-31T04:57:32.981Z,38.90
2023-12-31T05:02:41.469Z,35.60
2023-12-31T05:07:49.679Z,42.50
2023-12-31T05:12:57.092Z,35.60
2023-12-31T05:18:04.884Z,56.70
2023-12-31T05:23:12.455Z,37.00
2023-12-31T05:28:20.020Z,42.70
2023-12-31T05:33:27.487Z,38.70
2023-12-31T05:38:34.849Z,42.50
2023-12-31T05:43:43.345Z,47.20
2023-12-31T05:48:50.912Z,40.90
2023-12-31T05:53:58.581Z,40.20
2023-12-31T05:59:05.968Z,37.90
2023-12-31T06:04:13.662Z,43.20
2023-12-31T06:09:21.302Z,38.90
2023-12-31T06:14:28.917Z,42.40
2023-12-31T06:19:37.717Z,37.70
2023-12-31T06:24:45.173Z,38.60
2023-12-31T06:29:52.887Z,41.80
2023-12-31T06:35:00.544Z,44.00
2023-12-31T06:40:10.576Z,36.80
2023-12-31T06:45:17.882Z,36.70
2023-12-31T06:50:25.553Z,39.50
2023-12-31T06:55:32.826Z,39.70
2023-12-31T07:00:40.327Z,41.60
2023-12-31T07:05:49.347Z,40.90
2023-12-31T07:10:57.536Z,39.40
2023-12-31T07:16:05.587Z,40.60
2023-12-31T07:21:13.142Z,36.70
2023-12-31T07:26:30.277Z,43.60
2023-12-31T07:36:45.238Z,42.10
2023-12-31T07:41:52.485Z,39.80
2023-12-31T07:46:59.931Z,33.00
2023-12-31T07:52:08.057Z,45.50
2023-12-31T07:57:16.023Z,47.70
2023-12-31T08:02:23.782Z,45.10
2023-12-31T08:07:31.520Z,40.90
2023-12-31T08:12:39.170Z,42.60
2023-12-31T08:17:46.945Z,37.40
2023-12-31T08:22:54.821Z,41.10
2023-12-31T08:28:02.729Z,37.50
2023-12-31T08:33:10.137Z,40.20
2023-12-31T08:38:17.832Z,38.00
2023-12-31T08:43:25.804Z,44.60
2023-12-31T08:48:33.437Z,46.60
2023-12-31T08:53:41.101Z,44.10
2023-12-31T08:58:48.463Z,39.70
2023-12-31T09:03:56.016Z,48.10
2023-12-31T09:09:04.147Z,56.00
2023-12-31T09:14:11.451Z,45.60
2023-12-31T09:19:19.021Z,37.10
2023-12-31T09:24:28.434Z,34.60
2023-12-31T09:29:35.912Z,30.10
2023-12-31T09:34:43.432Z,57.20
2023-12-31T09:39:51.284Z,31.20
2023-12-31T09:45:00.811Z,30.80
2023-12-31T09:50:11.028Z,30.90
2023-12-31T09:55:19.863Z,26.40
2023-12-31T10:00:28.228Z,24.80
2023-12-31T10:05:37.967Z,24.20
2023-12-31T10:10:45.799Z,24.30
2023-12-31T10:15:55.285Z,28.90
2023-12-31T10:21:02.647Z,25.90
2023-12-31T10:26:12.502Z,25.70
2023-12-31T10:31:21.702Z,43.30
2023-12-31T10:36:30.496Z,23.70
2023-12-31T10:41:40.250Z,26.10
2023-12-31T10:46:50.452Z,23.30
2023-12-31T10:51:59.650Z,24.20
2023-12-31T10:57:08.970Z,26.00
2023-12-31T11:02:19.492Z,24.60
2023-12-31T11:07:28.351Z,22.50
2023-12-31T11:12:35.857Z,23.60
2023-12-31T11:18:16.713Z,23.70
2023-12-31T11:23:35.122Z,24.40
2023-12-31T11:28:51.212Z,26.10
2023-12-31T11:33:59.661Z,23.80
2023-12-31T11:39:16.522Z,23.80
2023-12-31T11:44:43.887Z,23.60
2023-12-31T11:49:56.387Z,26.50
2023-12-31T11:55:04.487Z,24.40
2023-12-31T12:00:13.440Z,28.20
2023-12-31T12:05:20.938Z,25.90
2023-12-31T12:10:28.854Z,26.00
2023-12-31T12:15:40.962Z,30.10
2023-12-31T12:20:49.670Z,29.90
2023-12-31T12:25:59.686Z,28.90
2023-12-31T12:31:10.381Z,27.70
2023-12-31T12:36:19.622Z,29.50
2023-12-31T12:41:26.842Z,27.80
2023-12-31T12:46:35.687Z,25.10
2023-12-31T12:51:43.987Z,24.40
2023-12-31T12:56:51.978Z,26.20
2023-12-31T13:01:59.354Z,24.40
2023-12-31T13:07:08.416Z,30.30
2023-12-31T13:12:16.430Z,22.20
2023-12-31T13:17:25.120Z,22.50
2023-12-31T13:22:33.359Z,22.70
2023-12-31T13:27:41.175Z,21.60
2023-12-31T13:32:48.656Z,24.80
2023-12-31T13:37:56.235Z,29.10
2023-12-31T13:43:04.408Z,22.50
2023-12-31T13:48:12.847Z,23.90
2023-12-31T13:53:20.987Z,20.90
2023-12-31T13:58:28.977Z,19.90
2023-12-31T14:03:37.364Z,19.60
2023-12-31T14:08:45.306Z,20.30
2023-12-31T14:13:52.919Z,16.50
2023-12-31T14:19:01.025Z,20.30
2023-12-31T14:24:09.558Z,19.40
2023-12-31T14:29:16.940Z,20.60
2023-12-31T14:34:24.986Z,20.40
2023-12-31T14:39:32.402Z,15.20
2023-12-31T14:44:39.905Z,25.40
2023-12-31T14:49:47.969Z,20.50
2023-12-31T14:54:55.554Z,15.90
2023-12-31T15:00:02.806Z,19.40
2023-12-31T15:05:17.382Z,18.70
2023-12-31T15:10:25.963Z,20.30
2023-12-31T15:15:33.656Z,18.10
2023-12-31T15:25:15.047Z,17.80
2023-12-31T15:30:22.947Z,21.00
2023-12-31T15:35:31.003Z,21.00
2023-12-31T15:40:40.879Z,24.50
2023-12-31T15:45:48.552Z,24.60
2023-12-31T15:50:56.177Z,21.00
2023-12-31T15:56:03.719Z,26.40
2023-12-31T16:01:11.812Z,28.50
2023-12-31T16:06:19.440Z,30.10
2023-12-31T16:11:27.215Z,26.70
2023-12-31T16:16:35.355Z,26.80
2023-12-31T16:21:44.446Z,24.20
2023-12-31T16:26:51.906Z,26.90
2023-12-31T16:31:59.478Z,26.90
2023-12-31T16:37:17.263Z,24.80
2023-12-31T16:42:25.438Z,26.10
2023-12-31T16:47:35.507Z,26.70
2023-12-31T16:52:44.259Z,25.10
2023-12-31T16:57:51.339Z,22.60
2023-12-31T17:02:58.835Z,28.20
2023-12-31T17:08:06.824Z,25.90
2023-12-31T17:13:15.269Z,27.60
2023-12-31T17:18:22.682Z,28.30
2023-12-31T17:23:30.506Z,27.30
2023-12-31T17:34:20.273Z,30.90
2023-12-31T17:39:27.790Z,28.20
2023-12-31T17:44:35.237Z,32.90
2023-12-31T17:49:43.079Z,41.10
2023-12-31T17:54:51.278Z,44.30
2023-12-31T17:59:59.053Z,26.00
2023-12-31T18:05:07.136Z,34.10
2023-12-31T18:10:14.822Z,31.30
2023-12-31T18:15:22.637Z,33.00
2023-12-31T18:20:30.293Z,40.00
2023-12-31T18:25:37.949Z,32.50
2023-12-31T18:30:47.901Z,34.20
2023-12-31T18:35:58.471Z,28.30
2023-12-31T18:41:06.090Z,34.90
2023-12-31T18:49:20.247Z,42.30
2023-12-31T18:54:27.712Z,32.60
2023-12-31T18:59:35.089Z,37.40
2023-12-31T19:04:43.743Z,39.10
2023-12-31T19:09:51.403Z,43.70
2023-12-31T19:15:00.916Z,40.80
2023-12-31T19:20:11.574Z,40.80
2023-12-31T19:25:19.364Z,36.30
2023-12-31T19:30:28.333Z,42.70
2023-12-31T19:35:35.711Z,45.60
2023-12-31T19:40:45.445Z,43.00
2023-12-31T19:45:54.581Z,43.20
2023-12-31T19:51:01.943Z,49.60
2023-12-31T19:56:10.402Z,52.50
2023-12-31T20:01:17.753Z,45.00
2023-12-31T20:06:26.445Z,45.10
2023-12-31T20:11:36.982Z,45.60
2023-12-31T20:16:44.686Z,50.40
2023-12-31T20:24:46.636Z,41.90
2023-12-31T20:29:55.595Z,44.30
2023-12-31T20:35:04.964Z,50.20
2023-12-31T20:40:15.355Z,43.60
2023-12-31T20:45:24.899Z,45.00
2023-12-31T20:50:33.486Z,42.90
2023-12-31T20:55:41.370Z,51.00
2023-12-31T21:00:49.166Z,50.10
2023-12-31T21:06:00.573Z,50.30
2023-12-31T21:11:09.499Z,59.70
2023-12-31T21:16:31.351Z,118.90
2023-12-31T21:21:42.432Z,45.30
2023-12-31T21:26:52.081Z,51.60
2023-12-31T21:31:59.833Z,54.40
2023-12-31T21:37:09.766Z,52.60
2023-12-31T21:42:17.972Z,56.20
2023-12-31T21:47:27.642Z,53.00
2023-12-31T21:52:34.969Z,51.80
2023-12-31T21:57:43.187Z,52.30
2023-12-31T22:02:52.759Z,54.50
2023-12-31T22:08:00.593Z,51.70
2023-12-31T22:13:08.884Z,71.70
2023-12-31T22:18:16.588Z,52.20
2023-12-31T22:23:24.719Z,52.20
2023-12-31T22:28:33.084Z,56.50
2023-12-31T22:33:41.410Z,52.30
2023-12-31T22:38:49.164Z,48.70
2023-12-31T22:43:56.789Z,57.80
2023-12-31T22:49:04.524Z,49.50
2023-12-31T22:54:12.325Z,54.50
2023-12-31T22:59:19.897Z,59.30
2023-12-31T23:04:27.281Z,58.00
2023-12-31T23:09:34.837Z,61.50
2023-12-31T23:14:42.203Z,59.00
2023-12-31T23:19:49.644Z,64.00
2023-12-31T23:24:57.407Z,65.50
2023-12-31T23:30:06.228Z,126.80
2023-12-31T23:35:14.094Z,168.60
2023-12-31T23:40:21.538Z,186.90
2023-12-31T23:45:29.305Z,159.80
2023-12-31T23:50:36.825Z,171.30
2023-12-31T23:55:44.651Z,172.70
